This is the latest recevied weather packets stored in our database for station/object N4VTB-13. If no packets are shown the sender has not sent any weather packets the latest 10 day(s).
| Time | Temp. | Humidity | Pressure | Rain* | Wind** | Luminosity | Snow |
|---|---|---|---|---|---|---|---|
| 1777821676 | 12.78° C | 87% | 1015.4 hPa | 0 mm | - | 63 W/m² | - |
| 1777818096 | 11.11° C | 92% | 1015.3 hPa | 0 mm | - | 25 W/m² | - |
| 1777814476 | 11.11° C | 90% | 1015.1 hPa | 0 mm | - | 9 W/m² | - |
| 1777811476 | 11.11° C | 88% | 1015.2 hPa | 0 mm | - | 0 W/m² | - |
| 1777806076 | 11.67° C | 86% | 1015.6 hPa | 0 mm | - | 0 W/m² | - |
| 1777802496 | 12.78° C | 82% | 1015.6 hPa | 0 mm | - | 0 W/m² | - |
| 1777795876 | 13.89° C | 75% | 1015.8 hPa | 0 mm | - | 0 W/m² | - |
| 1777795267 | 13.89° C | 75% | 1015.8 hPa | 0 mm | - | 0 W/m² | - |
| 1777792875 | 14.44° C | 72% | 1015.7 hPa | 0 mm | - | 0 W/m² | - |
| 1777792295 | 14.44° C | 72% | 1015.7 hPa | 0 mm | - | 0 W/m² | - |
| 1777789276 | 15° C | 69% | 1015.6 hPa | 0 mm | - | 0 W/m² | - |
| 1777788076 | 15° C | 69% | 1015.6 hPa | 0 mm | - | 0 W/m² | - |
| 1777785076 | 15.56° C | 67% | 1015.5 hPa | 0 mm | - | 0 W/m² | - |
| 1777783896 | 15.56° C | 65% | 1015.5 hPa | 0 mm | - | 0 W/m² | - |
| 1777779075 | 17.78° C | 62% | 1014.4 hPa | 0 mm | - | 0 W/m² | - |
| 1777778475 | 18.33° C | 64% | 1014.3 hPa | 0 mm | - | 0 W/m² | - |
| 1777776075 | 19.44° C | 63% | 1014.1 hPa | 0 mm | - | 12 W/m² | - |
| 1777771875 | 21.67° C | 57% | 1014 hPa | 0 mm | - | 144 W/m² | - |
| 1777771275 | 22.22° C | 56% | 1014.2 hPa | 0 mm | - | 45 W/m² | - |
| 1777769495 | 22.78° C | 58% | 1014.3 hPa | 0 mm | - | 200 W/m² | - |
| 1777768875 | 22.78° C | 57% | 1014.4 hPa | 0 mm | - | 72 W/m² | - |
| 1777761717 | 22.22° C | 60% | 1015.4 hPa | 0 mm | - | 58 W/m² | - |
| 1777758717 | 22.22° C | 61% | 1016 hPa | 0 mm | - | 80 W/m² | - |
| 1777741276 | 14.44° C | 79% | 1018.2 hPa | 0 mm | - | 271 W/m² | - |
| 1777740677 | 14.44° C | 80% | 1018.2 hPa | 0 mm | - | 243 W/m² | - |
* Rain latest hour (hover to see other rain measurements)
** Current wind speed in m/s (hover to see current wind gust speed)